Time;durP1;ratioP1;P1;durP2;ratioP2;P2;SDS_P1;SDS_P2;PMS_P1;PMS_P2;Temp;Humidity;BMP_temperature;BMP_pressure;BME280_temperature;BME280_humidity;BME280_pressure;Samples;Min_cycle;Max_cycle;Signal;HPM_P1;HPM_P2
2023/08/12 00:00:10;;;;;;;8.57;4.60;;;20.50;99.90;;;;;;5073322;28;21053;-62
2023/08/12 00:02:37;;;;;;;7.63;4.47;;;20.40;99.90;;;;;;5074146;28;20432;-61
2023/08/12 00:05:05;;;;;;;7.80;4.50;;;20.40;99.90;;;;;;5073598;28;20445;-62
2023/08/12 00:07:32;;;;;;;7.17;4.33;;;20.40;99.90;;;;;;5073531;28;20799;-61
2023/08/12 00:10:00;;;;;;;6.00;4.40;;;20.40;99.90;;;;;;5073138;28;20970;-62
2023/08/12 00:12:27;;;;;;;5.90;4.23;;;20.40;99.90;;;;;;5073054;28;20918;-62
2023/08/12 00:14:54;;;;;;;6.07;4.70;;;20.30;99.90;;;;;;5073072;28;20951;-63
2023/08/12 00:17:21;;;;;;;8.90;4.53;;;20.30;99.90;;;;;;5073361;28;20484;-62
2023/08/12 00:19:47;;;;;;;5.03;4.43;;;20.30;99.90;;;;;;5073202;28;20498;-63
2023/08/12 00:22:14;;;;;;;7.90;4.27;;;20.30;99.90;;;;;;5073239;28;20447;-64
2023/08/12 00:24:41;;;;;;;8.47;4.80;;;20.30;99.90;;;;;;5073129;28;20451;-63
2023/08/12 00:27:09;;;;;;;10.30;4.93;;;20.30;99.90;;;;;;5074680;28;20472;-62
2023/08/12 00:29:36;;;;;;;7.30;5.30;;;20.30;99.90;;;;;;5078178;28;20843;-62
2023/08/12 00:32:03;;;;;;;4.93;4.30;;;20.30;99.90;;;;;;5078239;28;20440;-63
2023/08/12 00:34:30;;;;;;;11.50;4.43;;;20.30;99.90;;;;;;5077802;28;20442;-63
2023/08/12 00:36:57;;;;;;;5.67;4.10;;;20.30;99.90;;;;;;5077528;28;20484;-63
2023/08/12 00:39:24;;;;;;;7.53;4.00;;;20.20;99.90;;;;;;5077300;28;20817;-63
2023/08/12 00:41:50;;;;;;;7.00;4.50;;;20.20;99.90;;;;;;5078032;28;20828;-61
2023/08/12 00:44:18;;;;;;;9.03;5.07;;;20.20;99.90;;;;;;5077285;28;20813;-63
2023/08/12 00:46:45;;;;;;;6.47;4.67;;;20.20;99.90;;;;;;5077840;28;20819;-63
2023/08/12 00:49:13;;;;;;;8.60;5.13;;;20.20;99.90;;;;;;5078152;28;20805;-62
2023/08/12 00:51:42;;;;;;;10.53;4.67;;;20.20;99.90;;;;;;5078227;28;20547;-62
2023/08/12 00:54:14;;;;;;;5.53;4.87;;;20.20;99.90;;;;;;5078304;28;20941;-64
2023/08/12 00:56:40;;;;;;;8.70;5.03;;;20.10;99.90;;;;;;5077737;28;20479;-62
2023/08/12 00:59:09;;;;;;;12.70;4.60;;;20.20;99.90;;;;;;5078007;28;20900;-63
2023/08/12 01:01:41;;;;;;;8.50;4.60;;;20.20;99.90;;;;;;5077937;28;20450;-62
2023/08/12 01:04:08;;;;;;;8.80;4.63;;;20.20;99.90;;;;;;5077754;28;20452;-62
2023/08/12 01:06:35;;;;;;;6.03;4.63;;;20.20;99.90;;;;;;5077027;28;20486;-62
2023/08/12 01:09:05;;;;;;;5.30;4.73;;;20.20;99.90;;;;;;5077322;28;20450;-62
2023/08/12 01:11:39;;;;;;;6.30;4.23;;;20.20;99.90;;;;;;5076768;28;20504;-61
2023/08/12 01:14:12;;;;;;;8.10;4.27;;;20.10;99.90;;;;;;5076781;28;20523;-61
2023/08/12 01:16:47;;;;;;;5.00;4.47;;;20.10;99.90;;;;;;5077738;28;20487;-62
2023/08/12 01:19:28;;;;;;;6.47;5.03;;;20.10;99.90;;;;;;5076996;28;20795;-61
2023/08/12 01:21:56;;;;;;;8.50;4.60;;;20.10;99.90;;;;;;5077019;28;20805;-63
2023/08/12 01:24:25;;;;;;;11.40;5.20;;;20.10;99.90;;;;;;5076987;28;20454;-62
2023/08/12 01:26:52;;;;;;;6.73;4.70;;;20.10;99.90;;;;;;5076133;28;20585;-63
2023/08/12 01:29:19;;;;;;;5.13;4.50;;;20.10;99.90;;;;;;5076871;28;20447;-62
2023/08/12 01:31:52;;;;;;;6.63;5.00;;;20.10;99.90;;;;;;5076486;28;20437;-62
2023/08/12 01:34:39;;;;;;;8.13;5.10;;;20.10;99.90;;;;;;5076527;28;20433;-62
2023/08/12 01:37:07;;;;;;;7.67;4.30;;;20.10;99.90;;;;;;5076438;28;20997;-62
2023/08/12 01:39:37;;;;;;;7.30;5.00;;;20.10;99.90;;;;;;5075353;28;20814;-62
2023/08/12 01:42:05;;;;;;;7.57;4.60;;;20.10;99.90;;;;;;5076124;28;20440;-62
2023/08/12 01:44:32;;;;;;;7.37;4.93;;;20.10;99.90;;;;;;5076547;28;20440;-63
2023/08/12 01:47:01;;;;;;;6.33;4.30;;;20.10;99.90;;;;;;5076208;28;20456;-63
2023/08/12 01:49:27;;;;;;;8.33;4.50;;;20.10;99.90;;;;;;5076120;28;20817;-63
2023/08/12 01:51:54;;;;;;;6.27;4.33;;;20.20;99.90;;;;;;5075739;28;21017;-62
2023/08/12 01:54:21;;;;;;;8.07;4.23;;;20.20;99.90;;;;;;5076015;28;20445;-62
2023/08/12 01:56:49;;;;;;;6.97;4.40;;;20.20;99.90;;;;;;5076084;28;20495;-62
2023/08/12 01:59:16;;;;;;;9.90;4.70;;;20.20;99.90;;;;;;5075658;28;20478;-62
2023/08/12 02:01:42;;;;;;;8.20;4.70;;;20.20;99.90;;;;;;5075807;28;20441;-62
2023/08/12 02:04:09;;;;;;;4.20;3.87;;;20.20;99.90;;;;;;5075817;28;20442;-61
2023/08/12 02:06:36;;;;;;;10.93;4.53;;;20.20;99.90;;;;;;5075973;28;20465;-62
2023/08/12 02:09:02;;;;;;;7.40;4.67;;;20.30;99.90;;;;;;5075788;28;20822;-62
2023/08/12 02:11:29;;;;;;;10.10;4.60;;;20.30;99.90;;;;;;5075378;28;20938;-63
2023/08/12 02:13:57;;;;;;;6.50;4.53;;;20.30;99.90;;;;;;5075675;28;20478;-62
2023/08/12 02:16:24;;;;;;;5.20;4.70;;;20.30;99.90;;;;;;5075124;28;20464;-62
2023/08/12 02:18:51;;;;;;;8.17;4.97;;;20.30;99.90;;;;;;5074990;28;20485;-62
2023/08/12 02:21:17;;;;;;;8.70;4.63;;;20.40;99.90;;;;;;5075014;28;20443;-62
2023/08/12 02:23:45;;;;;;;6.80;4.33;;;20.40;99.90;;;;;;5075119;28;20449;-62
2023/08/12 02:26:11;;;;;;;6.10;4.10;;;20.40;99.90;;;;;;5074578;28;20469;-63
2023/08/12 02:28:38;;;;;;;7.27;4.60;;;20.40;99.90;;;;;;5075042;28;20445;-62
2023/08/12 02:31:06;;;;;;;5.47;4.27;;;20.40;99.90;;;;;;5075197;28;20812;-63
2023/08/12 02:33:33;;;;;;;8.20;4.17;;;20.40;99.90;;;;;;5075579;28;20446;-62
2023/08/12 02:36:00;;;;;;;8.13;4.50;;;20.40;99.90;;;;;;5075881;28;20465;-61
2023/08/12 02:38:27;;;;;;;6.63;4.70;;;20.40;99.90;;;;;;5076231;28;20488;-64
2023/08/12 02:40:53;;;;;;;8.50;4.70;;;20.40;99.90;;;;;;5075616;28;20435;-63
2023/08/12 02:43:20;;;;;;;6.00;4.50;;;20.40;99.90;;;;;;5075142;28;20540;-63
2023/08/12 02:45:47;;;;;;;9.13;4.97;;;20.30;99.90;;;;;;5074971;28;20839;-63
2023/08/12 02:48:15;;;;;;;8.20;5.07;;;20.30;99.90;;;;;;5075169;28;20440;-63
2023/08/12 02:50:42;;;;;;;5.60;4.30;;;20.30;99.90;;;;;;5073847;28;20450;-63
2023/08/12 02:53:09;;;;;;;5.23;4.20;;;20.30;99.90;;;;;;5075011;28;20438;-63
2023/08/12 02:55:37;;;;;;;8.37;4.20;;;20.20;99.90;;;;;;5074278;28;20457;-63
2023/08/12 02:58:04;;;;;;;4.70;4.30;;;20.30;99.90;;;;;;5074484;28;20481;-62
2023/08/12 03:00:31;;;;;;;5.63;4.33;;;20.30;99.90;;;;;;5074224;28;20442;-63
2023/08/12 03:02:58;;;;;;;4.83;4.40;;;20.30;99.90;;;;;;5073868;28;20437;-62
2023/08/12 03:05:26;;;;;;;8.43;4.60;;;20.30;99.90;;;;;;5073930;28;20446;-62
2023/08/12 03:07:53;;;;;;;5.87;3.90;;;20.30;99.90;;;;;;5074091;28;20454;-61
2023/08/12 03:10:20;;;;;;;6.63;4.47;;;20.30;99.90;;;;;;5074262;28;20438;-61
2023/08/12 03:12:46;;;;;;;5.97;4.50;;;20.30;99.90;;;;;;5073905;28;20435;-62
2023/08/12 03:15:13;;;;;;;6.43;4.50;;;20.30;99.90;;;;;;5073393;28;20555;-63
2023/08/12 03:17:41;;;;;;;5.00;4.50;;;20.30;99.90;;;;;;5073665;28;20477;-62
2023/08/12 03:20:09;;;;;;;8.60;4.10;;;20.40;99.90;;;;;;5073496;28;20484;-63
2023/08/12 03:22:37;;;;;;;7.03;4.67;;;20.40;99.90;;;;;;5073486;28;20818;-62
2023/08/12 03:25:05;;;;;;;5.77;4.30;;;20.40;99.90;;;;;;5073469;28;20446;-63
2023/08/12 03:27:32;;;;;;;6.07;4.57;;;20.50;99.90;;;;;;5073161;28;20477;-62
2023/08/12 03:29:58;;;;;;;5.23;4.33;;;20.50;99.90;;;;;;5073706;28;20518;-62
2023/08/12 03:32:25;;;;;;;6.53;4.60;;;20.50;99.90;;;;;;5073697;28;20590;-62
2023/08/12 03:34:52;;;;;;;5.37;4.83;;;20.50;99.90;;;;;;5073782;28;20446;-62
2023/08/12 03:37:19;;;;;;;7.47;5.17;;;20.50;99.90;;;;;;5073085;28;20491;-62
2023/08/12 03:39:47;;;;;;;6.73;6.00;;;20.50;99.90;;;;;;5073386;28;20945;-61
2023/08/12 03:42:16;;;;;;;5.63;5.13;;;20.50;99.90;;;;;;5073701;28;20445;-61
2023/08/12 03:44:43;;;;;;;6.57;5.97;;;20.50;99.90;;;;;;5073108;28;20480;-62
2023/08/12 03:47:10;;;;;;;7.50;6.40;;;20.40;99.90;;;;;;5073801;28;20471;-61
2023/08/12 03:49:37;;;;;;;6.83;6.13;;;20.40;99.90;;;;;;5073425;28;20452;-61
2023/08/12 03:52:04;;;;;;;9.57;6.83;;;20.30;99.90;;;;;;5073618;28;20440;-62
2023/08/12 03:54:31;;;;;;;7.87;6.43;;;20.20;99.90;;;;;;5073442;28;20439;-62
2023/08/12 03:56:59;;;;;;;7.63;6.43;;;20.20;99.90;;;;;;5073160;28;20460;-61
2023/08/12 03:59:26;;;;;;;10.03;8.47;;;20.10;99.90;;;;;;5073111;28;20486;-64
2023/08/12 04:01:52;;;;;;;9.87;8.57;;;20.10;99.90;;;;;;5072427;28;20972;-62
2023/08/12 04:04:19;;;;;;;8.93;7.20;;;20.00;99.90;;;;;;5073130;28;20447;-63
2023/08/12 04:06:48;;;;;;;8.17;7.00;;;20.00;99.90;;;;;;5073573;28;20479;-63
2023/08/12 04:12:03;;;;;;;12.40;8.27;;;19.90;99.90;;;;;;5108630;27;1337974;-63
2023/08/12 04:14:30;;;;;;;8.63;7.73;;;19.90;99.90;;;;;;5132667;28;20814;-63
2023/08/12 04:16:56;;;;;;;9.77;8.77;;;19.90;99.90;;;;;;5116517;28;20975;-63
2023/08/12 04:19:23;;;;;;;9.83;8.87;;;19.90;99.90;;;;;;5111337;28;20446;-62
2023/08/12 04:21:50;;;;;;;10.77;9.60;;;19.80;99.90;;;;;;5110658;28;20432;-63
2023/08/12 04:24:17;;;;;;;13.13;10.17;;;19.80;99.90;;;;;;5111668;28;20437;-62
2023/08/12 04:26:44;;;;;;;13.23;9.77;;;19.80;99.90;;;;;;5128645;22;20502;-64
2023/08/12 04:29:12;;;;;;;10.60;9.47;;;19.80;99.90;;;;;;5090580;28;20466;-62
2023/08/12 04:31:38;;;;;;;12.27;11.07;;;19.70;99.90;;;;;;5089982;28;20578;-64
2023/08/12 04:34:05;;;;;;;12.23;10.57;;;19.70;99.90;;;;;;5089995;28;20454;-65
2023/08/12 04:36:32;;;;;;;13.40;11.20;;;19.60;99.90;;;;;;5095183;28;20464;-65
2023/08/12 04:38:59;;;;;;;21.07;13.00;;;19.50;99.90;;;;;;5110537;28;20444;-66
2023/08/12 04:41:25;;;;;;;17.23;13.23;;;19.40;99.90;;;;;;5110508;28;20443;-67
2023/08/12 04:43:52;;;;;;;14.10;12.60;;;19.30;99.90;;;;;;5110381;28;20446;-68
2023/08/12 04:46:20;;;;;;;15.63;13.20;;;19.20;99.90;;;;;;5110186;28;20451;-68
2023/08/12 04:48:47;;;;;;;16.57;14.90;;;19.10;99.90;;;;;;5110307;28;20441;-68
2023/08/12 04:51:14;;;;;;;17.80;16.00;;;19.00;99.90;;;;;;5110093;28;20990;-68
2023/08/12 04:53:41;;;;;;;16.00;14.40;;;19.00;99.90;;;;;;5110376;28;20821;-68
2023/08/12 04:56:08;;;;;;;18.20;15.90;;;19.00;99.90;;;;;;5109901;28;21009;-67
2023/08/12 04:58:35;;;;;;;17.67;15.77;;;18.90;99.90;;;;;;5110090;28;20438;-67
2023/08/12 05:01:02;;;;;;;16.03;14.43;;;19.00;99.90;;;;;;5109647;28;20438;-67
2023/08/12 05:03:30;;;;;;;16.27;14.50;;;19.00;99.90;;;;;;5110500;28;20449;-68
2023/08/12 05:05:57;;;;;;;17.83;15.93;;;19.00;99.90;;;;;;5110243;28;20814;-68
2023/08/12 05:08:24;;;;;;;19.10;15.50;;;19.10;99.90;;;;;;5110382;28;20441;-68
2023/08/12 05:10:51;;;;;;;17.80;14.33;;;19.10;99.90;;;;;;5110447;28;20568;-68
2023/08/12 05:13:18;;;;;;;16.90;15.20;;;19.20;99.90;;;;;;5110672;28;20474;-67
2023/08/12 05:15:47;;;;;;;21.47;16.13;;;19.20;99.90;;;;;;5109683;28;20936;-67
2023/08/12 05:18:14;;;;;;;17.57;15.70;;;19.20;99.90;;;;;;5109968;28;20458;-67
2023/08/12 05:20:42;;;;;;;19.77;16.37;;;19.30;99.90;;;;;;5110111;28;20490;-67
2023/08/12 05:23:10;;;;;;;22.03;16.27;;;19.30;99.90;;;;;;5097666;28;20448;-67
2023/08/12 05:25:36;;;;;;;16.30;14.70;;;19.40;99.90;;;;;;5096271;28;20442;-67
2023/08/12 05:28:04;;;;;;;21.73;15.30;;;19.50;99.90;;;;;;5095666;28;20465;-67
2023/08/12 05:30:30;;;;;;;16.77;14.97;;;19.50;99.90;;;;;;5095922;28;21021;-66
2023/08/12 05:32:57;;;;;;;17.97;16.17;;;19.60;99.90;;;;;;5096187;28;20527;-66
2023/08/12 05:35:24;;;;;;;16.60;14.90;;;19.70;99.90;;;;;;5096162;28;20442;-67
2023/08/12 05:37:52;;;;;;;14.90;13.40;;;19.80;99.90;;;;;;5096749;28;20462;-67
2023/08/12 05:40:19;;;;;;;16.80;14.60;;;19.90;99.90;;;;;;5097634;28;20438;-66
2023/08/12 05:42:45;;;;;;;15.70;13.73;;;20.00;99.90;;;;;;5098436;28;20456;-67
2023/08/12 05:45:12;;;;;;;14.30;13.00;;;20.10;99.90;;;;;;5098089;28;20446;-66
2023/08/12 05:47:39;;;;;;;15.37;12.60;;;20.20;99.90;;;;;;5097664;28;21028;-68
2023/08/12 05:50:07;;;;;;;20.00;14.27;;;20.20;99.90;;;;;;5096660;28;20439;-66
2023/08/12 05:52:34;;;;;;;22.43;13.67;;;20.20;99.90;;;;;;5095950;28;20434;-66
2023/08/12 05:55:02;;;;;;;15.70;13.23;;;20.20;99.90;;;;;;5095660;28;20447;-67
2023/08/12 05:57:29;;;;;;;16.07;13.83;;;20.20;99.90;;;;;;5096720;28;20469;-66
2023/08/12 05:59:56;;;;;;;15.07;13.33;;;20.10;99.90;;;;;;5097214;28;20529;-67
2023/08/12 06:02:23;;;;;;;19.17;14.93;;;20.20;99.90;;;;;;5097268;28;20457;-68
2023/08/12 06:04:50;;;;;;;16.07;13.20;;;20.10;99.90;;;;;;5095761;28;20830;-68
2023/08/12 06:07:18;;;;;;;15.80;14.30;;;20.20;99.90;;;;;;5095593;28;20459;-67
2023/08/12 06:09:45;;;;;;;15.50;13.90;;;20.10;99.90;;;;;;5095578;28;20535;-66
2023/08/12 06:12:13;;;;;;;15.00;13.10;;;20.10;99.90;;;;;;5095120;28;21013;-68
2023/08/12 06:14:41;;;;;;;16.50;14.00;;;20.10;99.90;;;;;;5096040;28;20435;-68
2023/08/12 06:17:08;;;;;;;14.70;13.17;;;20.10;99.90;;;;;;5095911;28;20565;-67
2023/08/12 06:19:34;;;;;;;16.23;13.93;;;20.20;99.90;;;;;;5095872;28;20537;-69
2023/08/12 06:22:01;;;;;;;15.53;12.93;;;20.20;99.90;;;;;;5096376;28;21012;-68
2023/08/12 06:24:28;;;;;;;14.30;12.80;;;20.20;99.90;;;;;;5095917;28;20458;-68
2023/08/12 06:26:55;;;;;;;14.27;12.77;;;20.40;99.90;;;;;;5095509;28;20474;-66
2023/08/12 06:29:23;;;;;;;16.30;13.43;;;20.50;99.90;;;;;;5095285;28;20438;-68
2023/08/12 06:31:50;;;;;;;13.80;12.30;;;20.60;99.90;;;;;;5095415;28;20555;-68
2023/08/12 06:34:17;;;;;;;13.90;12.50;;;20.80;99.90;;;;;;5094860;28;20452;-68
2023/08/12 06:36:43;;;;;;;13.73;12.10;;;20.80;99.90;;;;;;5094543;28;20472;-67
2023/08/12 06:39:10;;;;;;;16.93;13.43;;;20.90;99.90;;;;;;5094887;28;20453;-68
2023/08/12 06:41:37;;;;;;;17.57;12.70;;;20.90;99.90;;;;;;5094711;28;20443;-67
2023/08/12 06:44:04;;;;;;;17.57;11.90;;;21.00;99.90;;;;;;5094657;28;20461;-66
2023/08/12 06:46:32;;;;;;;12.97;11.37;;;21.00;99.90;;;;;;5094075;28;20469;-66
2023/08/12 06:49:00;;;;;;;18.07;12.17;;;21.10;99.90;;;;;;5094928;28;20441;-68
2023/08/12 06:51:26;;;;;;;15.10;11.97;;;21.30;99.90;;;;;;5094503;28;20473;-68
2023/08/12 06:53:53;;;;;;;12.53;10.93;;;21.50;99.90;;;;;;5094302;28;20450;-67
2023/08/12 06:56:20;;;;;;;13.73;11.90;;;21.80;99.90;;;;;;5094007;28;20478;-66
2023/08/12 06:58:47;;;;;;;11.13;10.00;;;22.00;99.90;;;;;;5094262;28;20449;-66
2023/08/12 07:01:14;;;;;;;11.43;10.23;;;22.30;99.90;;;;;;5094065;28;20529;-66
2023/08/12 07:03:42;;;;;;;12.97;10.37;;;22.50;99.90;;;;;;5094257;28;20438;-66
2023/08/12 07:06:09;;;;;;;11.53;10.30;;;22.70;99.90;;;;;;5094320;28;20438;-67
2023/08/12 07:08:35;;;;;;;11.60;9.73;;;22.70;99.90;;;;;;5094158;28;20457;-67
2023/08/12 07:11:02;;;;;;;10.83;9.40;;;22.80;99.90;;;;;;5093915;28;20482;-65
2023/08/12 07:13:29;;;;;;;15.77;12.10;;;22.90;99.90;;;;;;5094228;28;20430;-67
2023/08/12 07:15:56;;;;;;;10.93;9.83;;;23.10;99.90;;;;;;5093999;28;20439;-66
2023/08/12 07:18:23;;;;;;;14.80;11.50;;;23.30;99.90;;;;;;5094626;28;20461;-67
2023/08/12 07:20:51;;;;;;;11.13;9.50;;;23.50;99.90;;;;;;5094209;28;20483;-67
2023/08/12 07:23:18;;;;;;;11.07;9.60;;;23.90;99.90;;;;;;5094737;28;20442;-67
2023/08/12 07:25:47;;;;;;;11.70;8.87;;;24.10;99.90;;;;;;5094262;28;20442;-67
2023/08/12 07:28:13;;;;;;;9.23;8.33;;;24.30;99.90;;;;;;5094029;28;20465;-66
2023/08/12 07:30:40;;;;;;;10.43;9.40;;;24.50;99.90;;;;;;5093942;28;20452;-66
2023/08/12 07:33:08;;;;;;;14.80;9.63;;;24.60;99.90;;;;;;5094691;28;20430;-65
2023/08/12 07:35:35;;;;;;;8.80;7.90;;;24.70;99.90;;;;;;5094237;28;20442;-66
2023/08/12 07:38:03;;;;;;;11.23;8.97;;;24.80;99.90;;;;;;5094239;28;20463;-66
2023/08/12 07:40:30;;;;;;;9.43;7.83;;;24.90;99.90;;;;;;5093833;28;20452;-66
2023/08/12 07:42:57;;;;;;;12.50;8.90;;;25.10;99.90;;;;;;5094820;28;20449;-66
2023/08/12 07:45:24;;;;;;;10.73;8.40;;;25.10;99.90;;;;;;5094065;28;20491;-65
2023/08/12 07:47:51;;;;;;;8.37;7.50;;;25.20;99.90;;;;;;5093906;28;20466;-66
2023/08/12 07:50:18;;;;;;;11.00;9.17;;;25.10;99.90;;;;;;5093874;28;20538;-66
2023/08/12 07:52:45;;;;;;;8.93;8.07;;;25.00;99.90;;;;;;5093799;28;20489;-66
2023/08/12 07:55:14;;;;;;;8.80;7.73;;;24.80;99.90;;;;;;5093396;28;20443;-67
2023/08/12 07:57:40;;;;;;;11.47;9.40;;;24.70;99.90;;;;;;5093387;28;20513;-66
2023/08/12 08:00:10;;;;;;;9.87;8.03;;;24.50;99.90;;;;;;5093787;28;20438;-68
2023/08/12 08:02:37;;;;;;;10.10;7.53;;;24.50;99.90;;;;;;5094357;28;20912;-67
2023/08/12 08:05:04;;;;;;;8.77;7.80;;;24.40;99.90;;;;;;5096137;28;20488;-67
2023/08/12 08:07:31;;;;;;;8.03;7.00;;;24.30;99.90;;;;;;5094370;28;20454;-67
2023/08/12 08:09:58;;;;;;;10.47;7.47;;;24.30;99.90;;;;;;5093891;28;20524;-65
2023/08/12 08:12:27;;;;;;;8.00;7.20;;;24.20;99.90;;;;;;5094685;28;20505;-67
2023/08/12 08:14:53;;;;;;;10.07;7.80;;;24.10;99.90;;;;;;5094754;28;20861;-67
2023/08/12 08:17:20;;;;;;;12.00;8.13;;;24.10;99.90;;;;;;5093576;28;20554;-67
2023/08/12 08:19:47;;;;;;;9.27;7.00;;;24.00;99.90;;;;;;5094239;28;20936;-68
2023/08/12 08:22:14;;;;;;;12.00;7.70;;;23.90;99.90;;;;;;5094335;28;20450;-67
2023/08/12 08:24:41;;;;;;;9.43;7.70;;;23.90;99.90;;;;;;5094151;28;20450;-66
2023/08/12 08:27:07;;;;;;;7.53;6.80;;;23.90;99.90;;;;;;5094710;28;20854;-66
2023/08/12 08:29:36;;;;;;;10.03;7.13;;;23.80;99.90;;;;;;5095375;28;20446;-67
2023/08/12 08:32:02;;;;;;;8.37;6.83;;;23.80;99.90;;;;;;5094656;28;20623;-65
2023/08/12 08:34:29;;;;;;;9.30;7.03;;;23.80;99.90;;;;;;5094046;28;20446;-66
2023/08/12 08:36:56;;;;;;;12.17;8.20;;;23.90;99.90;;;;;;5093580;28;20494;-67
2023/08/12 08:39:23;;;;;;;8.30;7.17;;;23.90;99.90;;;;;;5094153;28;20442;-67
2023/08/12 08:41:50;;;;;;;9.90;6.47;;;24.00;99.90;;;;;;5094614;28;20445;-66
2023/08/12 08:44:18;;;;;;;9.73;7.20;;;24.10;99.90;;;;;;5093884;28;20438;-67
2023/08/12 08:46:47;;;;;;;9.17;6.60;;;24.20;99.90;;;;;;5093295;28;20488;-67
2023/08/12 08:49:16;;;;;;;7.80;6.83;;;24.40;99.90;;;;;;5093456;28;20453;-66
2023/08/12 08:51:44;;;;;;;8.17;6.90;;;24.50;99.90;;;;;;5093987;28;20481;-66
2023/08/12 08:54:12;;;;;;;7.20;6.50;;;24.50;99.90;;;;;;5093806;28;20441;-67
2023/08/12 08:56:39;;;;;;;9.17;7.00;;;24.40;99.90;;;;;;5094454;28;20462;-66
2023/08/12 08:59:06;;;;;;;7.53;6.47;;;24.30;99.90;;;;;;5098104;28;20446;-65
2023/08/12 09:01:34;;;;;;;8.13;6.93;;;24.20;99.90;;;;;;5098971;28;20422;-66
2023/08/12 09:04:04;;;;;;;7.30;6.60;;;24.10;99.90;;;;;;5096963;28;20473;-66
2023/08/12 09:06:33;;;;;;;10.13;6.70;;;24.10;99.90;;;;;;5097903;28;20465;-68
2023/08/12 09:09:02;;;;;;;6.90;6.20;;;24.00;99.90;;;;;;5098430;28;20474;-66
2023/08/12 09:11:29;;;;;;;8.53;7.10;;;24.00;99.90;;;;;;5098234;28;20441;-66
2023/08/12 09:13:56;;;;;;;9.33;6.90;;;24.00;99.90;;;;;;5098065;28;20773;-65
2023/08/12 09:16:23;;;;;;;6.13;5.53;;;23.90;99.90;;;;;;5096853;28;20449;-67
2023/08/12 09:18:56;;;;;;;7.10;5.90;;;23.90;99.90;;;;;;5097261;28;20438;-67
2023/08/12 09:21:24;;;;;;;7.63;7.00;;;23.80;99.90;;;;;;5097342;28;20426;-67
2023/08/12 09:23:51;;;;;;;8.03;6.30;;;23.70;99.90;;;;;;5097671;28;20446;-66
2023/08/12 09:26:19;;;;;;;7.40;6.70;;;23.60;99.90;;;;;;5097578;28;20493;-67
2023/08/12 09:28:47;;;;;;;8.30;6.27;;;23.50;99.90;;;;;;5097960;28;20418;-66
2023/08/12 09:31:25;;;;;;;7.50;6.50;;;23.70;99.90;;;;;;5097674;28;20438;-66
2023/08/12 09:33:52;;;;;;;8.30;6.57;;;23.90;99.90;;;;;;5098134;28;20419;-67
2023/08/12 09:36:19;;;;;;;6.47;5.97;;;24.20;99.90;;;;;;5096510;28;20470;-67
2023/08/12 09:38:47;;;;;;;10.83;6.93;;;24.30;99.90;;;;;;5096730;28;20438;-66
2023/08/12 09:41:15;;;;;;;7.17;5.70;;;24.20;99.90;;;;;;5096275;28;20442;-66
2023/08/12 09:43:42;;;;;;;8.30;6.80;;;24.20;99.90;;;;;;5096831;28;20521;-67
2023/08/12 09:46:13;;;;;;;7.20;6.10;;;24.30;99.90;;;;;;5096279;28;20927;-68
2023/08/12 09:48:40;;;;;;;6.70;6.00;;;24.50;99.90;;;;;;5096359;28;20480;-65
2023/08/12 09:51:07;;;;;;;9.20;5.30;;;24.80;99.90;;;;;;5096110;28;20932;-66
2023/08/12 09:53:34;;;;;;;6.23;5.70;;;25.10;99.90;;;;;;5096298;28;20556;-66
2023/08/12 09:56:07;;;;;;;7.13;5.80;;;25.30;99.90;;;;;;5096212;28;20480;-65
2023/08/12 09:58:36;;;;;;;6.97;6.27;;;25.60;99.90;;;;;;5097281;28;20427;-67
2023/08/12 10:01:04;;;;;;;6.87;5.67;;;25.80;98.90;;;;;;5096720;28;20826;-66
2023/08/12 10:03:31;;;;;;;8.83;6.13;;;26.00;97.80;;;;;;5095801;28;20443;-64
2023/08/12 10:06:00;;;;;;;6.93;5.57;;;26.10;96.90;;;;;;5096355;28;20442;-66
2023/08/12 10:08:28;;;;;;;6.23;5.73;;;26.20;96.10;;;;;;5097451;28;20444;-67
2023/08/12 10:10:55;;;;;;;6.37;5.77;;;26.30;95.80;;;;;;5096625;28;20442;-71
2023/08/12 10:13:23;;;;;;;6.83;6.13;;;26.30;95.00;;;;;;5097245;28;20478;-67
2023/08/12 10:15:51;;;;;;;8.73;5.80;;;26.20;94.80;;;;;;5096851;28;20438;-66
2023/08/12 10:18:19;;;;;;;7.97;7.13;;;26.20;94.70;;;;;;5096029;28;20549;-67
2023/08/12 10:20:48;;;;;;;6.93;6.20;;;26.10;95.10;;;;;;5095739;28;20430;-65
2023/08/12 10:23:18;;;;;;;7.97;6.63;;;25.90;96.20;;;;;;5096202;28;20438;-67
2023/08/12 10:25:45;;;;;;;6.90;6.30;;;25.70;97.60;;;;;;5096121;28;20445;-67
2023/08/12 10:28:13;;;;;;;8.10;6.80;;;25.60;99.00;;;;;;5105320;22;20487;-63
2023/08/12 10:30:42;;;;;;;9.60;6.63;;;25.60;99.90;;;;;;5076702;28;20853;-62
2023/08/12 10:33:09;;;;;;;9.80;6.13;;;25.70;99.90;;;;;;5076654;28;20477;-64
2023/08/12 10:35:44;;;;;;;7.93;6.37;;;25.90;99.90;;;;;;5076692;28;20439;-63
2023/08/12 10:38:12;;;;;;;7.80;6.50;;;26.20;99.30;;;;;;5092271;28;20462;-62
2023/08/12 10:40:39;;;;;;;6.43;5.27;;;26.40;98.10;;;;;;5096070;28;20928;-64
2023/08/12 10:43:06;;;;;;;8.03;5.90;;;26.50;97.00;;;;;;5097419;28;20445;-64
2023/08/12 10:45:45;;;;;;;8.47;5.50;;;26.20;96.70;;;;;;5097389;28;20442;-64
2023/08/12 10:48:18;;;;;;;9.30;6.73;;;26.20;96.90;;;;;;5096296;28;20457;-63
2023/08/12 10:50:47;;;;;;;6.97;6.27;;;26.30;96.70;;;;;;5096868;28;20468;-63
2023/08/12 10:53:29;;;;;;;6.90;6.10;;;26.60;95.90;;;;;;5095578;28;20843;-64
2023/08/12 10:55:57;;;;;;;6.20;5.70;;;26.80;94.70;;;;;;5095621;28;20426;-62
2023/08/12 10:58:28;;;;;;;6.57;5.97;;;27.20;93.40;;;;;;5095629;28;20511;-62
2023/08/12 11:00:58;;;;;;;6.07;5.50;;;27.40;92.00;;;;;;5096446;28;20445;-64
2023/08/12 11:03:25;;;;;;;5.60;5.10;;;27.60;90.80;;;;;;5098009;28;20458;-63
2023/08/12 11:05:55;;;;;;;6.57;5.00;;;27.70;89.60;;;;;;5100691;28;20438;-63
2023/08/12 11:08:26;;;;;;;5.83;5.07;;;27.80;87.20;;;;;;5098621;28;20462;-63
2023/08/12 11:10:55;;;;;;;4.73;4.23;;;27.90;85.40;;;;;;5096483;28;20497;-63
2023/08/12 11:13:22;;;;;;;6.20;4.83;;;27.80;85.00;;;;;;5095475;28;20527;-63
2023/08/12 11:15:49;;;;;;;4.60;3.80;;;27.90;84.30;;;;;;5095132;28;20895;-62
2023/08/12 11:18:19;;;;;;;5.37;4.70;;;28.00;82.80;;;;;;5095394;28;20458;-64
2023/08/12 11:20:48;;;;;;;5.23;4.70;;;28.10;81.80;;;;;;5094841;28;20793;-64
2023/08/12 11:23:15;;;;;;;4.30;3.90;;;28.40;80.50;;;;;;5096066;28;20434;-63
2023/08/12 11:25:44;;;;;;;4.33;3.93;;;28.40;78.70;;;;;;5095477;28;20441;-62
2023/08/12 11:28:11;;;;;;;5.80;4.80;;;28.50;78.10;;;;;;5094881;28;20474;-63
2023/08/12 11:30:42;;;;;;;4.60;4.20;;;28.70;77.10;;;;;;5095822;28;20446;-63
2023/08/12 11:33:08;;;;;;;4.13;3.83;;;28.90;75.70;;;;;;5094957;28;20466;-65
2023/08/12 11:35:38;;;;;;;4.60;4.30;;;29.10;74.20;;;;;;5095368;28;20442;-63
2023/08/12 11:38:06;;;;;;;5.03;4.40;;;28.90;74.00;;;;;;5094226;28;20470;-64
2023/08/12 11:40:33;;;;;;;4.53;3.90;;;29.00;73.20;;;;;;5094449;28;20495;-65
2023/08/12 11:43:00;;;;;;;3.73;3.43;;;29.00;72.70;;;;;;5094871;28;20924;-64
2023/08/12 11:45:28;;;;;;;4.80;3.73;;;29.00;72.20;;;;;;5094904;28;20434;-63
2023/08/12 11:47:55;;;;;;;4.43;4.03;;;28.80;72.30;;;;;;5094449;28;20971;-63
2023/08/12 11:50:23;;;;;;;4.03;3.63;;;28.80;73.00;;;;;;5094519;28;20442;-63
2023/08/12 11:52:52;;;;;;;3.80;3.50;;;28.80;72.80;;;;;;5094387;28;20474;-64
2023/08/12 11:55:20;;;;;;;5.03;4.13;;;29.10;72.30;;;;;;5094300;28;20442;-63
2023/08/12 11:57:46;;;;;;;5.10;4.20;;;29.30;71.40;;;;;;5095115;28;20469;-63
2023/08/12 12:00:14;;;;;;;5.50;3.83;;;29.50;70.40;;;;;;5094428;28;20446;-63
2023/08/12 12:02:46;;;;;;;4.23;3.90;;;29.50;69.30;;;;;;5094390;28;20450;-64
2023/08/12 12:05:13;;;;;;;4.53;3.97;;;29.40;69.50;;;;;;5095617;28;20423;-64
2023/08/12 12:07:40;;;;;;;3.90;3.60;;;29.30;69.90;;;;;;5094271;28;20465;-63
2023/08/12 12:10:13;;;;;;;4.10;3.77;;;29.10;70.30;;;;;;5093958;28;20430;-63
2023/08/12 12:12:39;;;;;;;4.43;3.77;;;28.90;70.80;;;;;;5095051;28;20462;-64
2023/08/12 12:15:07;;;;;;;4.43;4.03;;;28.90;71.00;;;;;;5093835;28;20449;-63
2023/08/12 12:17:40;;;;;;;3.10;2.90;;;29.10;70.70;;;;;;5094592;28;20458;-65
2023/08/12 12:20:10;;;;;;;4.90;3.60;;;29.20;70.60;;;;;;5094972;28;20426;-64
2023/08/12 12:22:37;;;;;;;4.00;3.63;;;29.20;70.40;;;;;;5095181;28;20446;-65
2023/08/12 12:25:10;;;;;;;3.87;3.57;;;29.20;70.20;;;;;;5094899;28;20438;-62
2023/08/12 12:27:38;;;;;;;4.97;3.10;;;29.00;70.50;;;;;;5094111;28;20565;-62
2023/08/12 12:30:06;;;;;;;4.17;3.80;;;28.70;71.60;;;;;;5094431;28;20438;-63
2023/08/12 12:32:33;;;;;;;3.73;2.80;;;28.70;72.10;;;;;;5096095;28;20847;-63
2023/08/12 12:35:00;;;;;;;3.43;3.13;;;28.80;71.60;;;;;;5098457;28;20804;-64
2023/08/12 12:37:26;;;;;;;3.20;3.00;;;28.90;70.70;;;;;;5098311;28;20469;-64
2023/08/12 12:39:53;;;;;;;3.80;3.23;;;28.90;70.60;;;;;;5098853;28;20438;-64
2023/08/12 12:42:21;;;;;;;6.07;3.60;;;28.90;70.40;;;;;;5098457;28;20443;-63
2023/08/12 12:44:48;;;;;;;6.23;3.20;;;29.00;70.10;;;;;;5098041;28;20442;-62